Portada
METAR-TAF:

METAR-TAF

Aeropuertos :

Aeropuerto Internacional de Kansas City

Kansas City, Misuri, Estados Unidos

latitud: 39-17-50N, longitud: 094-43-50W, altitud: 312 m

Observación

El informe se hizo hace 20 minutos, a las 01:53 UTC
Viento 5 kt del norte-noroeste
Temperatura 19°C
Humedad 73%
Presión 1016 hPa
Visibilidad: 16.1 km
Cielo nuboso a una altura de 20000 ft

METAR: KMCI 290153Z 34005KT 10SM BKN200 19/14 A3001 RMK AO2 SLP156 T01940139 $

Hora: 21:13 (02:13 UTC)

Pronóstico

El informe se hizo hace 2 horas y 48 minutos, a las 23:25 UTC
Pronóstico válido del 29 a las 00 UTC al 29 a las 24 UTC
Viento 11 kt del norte
Visibilidad: 10 km
Cielo nuboso a una altura de 20000 ft
A partir de las 29 a las 0300 UTC
Viento 6 kt del norte-noroeste
Visibilidad: 10 km
Escasas nubes a una altura de 25000 ft

TAF: KMCI 282325Z 2900/2924 35011KT P6SM BKN200 FM290300 34006KT P6SM FEW250

Observaciones y pronósticos meteorológicos de más de 4000 aeropuertos (mensajes METAR y TAF).

Los puntos amarillos y rojos representan las estaciones disponibles.

Ponga el ratón en el punto deseado para ver el nombre de la estación.

Haga clic para ver las observaciones y los pronósticos meteorológicos.

Para cambiar el mapa : haga clic en los botones verdes con una cruz de color negro para hacer un zoom, en el botón verde con un guión para alejar o en las flechas verdes para mapas adyacentes.


METAR-TAF: